createdAt,value
2019-03-26T00:01:40.300Z,6.04
2019-03-26T00:04:09.159Z,5.95
2019-03-26T00:06:37.971Z,5.84
2019-03-26T00:09:08.783Z,5.74
2019-03-26T00:11:37.978Z,5.73
2019-03-26T00:14:06.811Z,5.74
2019-03-26T00:16:35.659Z,5.93
2019-03-26T00:19:05.639Z,6.08
2019-03-26T00:21:34.542Z,6.20
2019-03-26T00:24:03.345Z,6.16
2019-03-26T00:26:32.920Z,6.16
2019-03-26T00:29:01.749Z,6.09
2019-03-26T00:31:30.560Z,6.06
2019-03-26T00:33:59.415Z,6.04
2019-03-26T00:36:28.214Z,6.17
2019-03-26T00:38:57.036Z,6.26
2019-03-26T00:41:26.023Z,6.19
2019-03-26T00:43:54.839Z,6.16
2019-03-26T00:46:23.643Z,6.42
2019-03-26T00:48:52.667Z,6.27
2019-03-26T00:51:21.483Z,6.26
2019-03-26T00:53:50.317Z,6.20
2019-03-26T00:56:19.182Z,6.16
2019-03-26T00:58:48.005Z,6.13
2019-03-26T01:01:17.040Z,6.06
2019-03-26T01:03:45.910Z,5.99
2019-03-26T01:06:14.735Z,5.93
2019-03-26T01:08:43.558Z,5.84
2019-03-26T01:11:12.441Z,5.86
2019-03-26T01:13:41.247Z,5.83
2019-03-26T01:16:10.057Z,5.81
2019-03-26T01:18:39.032Z,5.78
2019-03-26T01:21:07.848Z,5.74
2019-03-26T01:23:36.670Z,5.75
2019-03-26T01:26:05.547Z,5.70
2019-03-26T01:28:34.359Z,5.70
2019-03-26T01:31:03.167Z,5.73
2019-03-26T01:33:32.208Z,5.81
2019-03-26T01:36:01.012Z,5.73
2019-03-26T01:38:29.816Z,5.94
2019-03-26T01:40:58.686Z,5.71
2019-03-26T01:43:27.502Z,5.47
2019-03-26T01:45:56.315Z,5.60
2019-03-26T01:48:25.160Z,5.80
2019-03-26T01:50:53.977Z,5.81
2019-03-26T01:53:22.801Z,5.69
2019-03-26T01:55:51.678Z,5.60
2019-03-26T01:58:20.511Z,5.47
2019-03-26T02:00:49.319Z,5.44
2019-03-26T02:03:18.276Z,5.46
2019-03-26T02:05:47.036Z,5.48
2019-03-26T02:08:15.781Z,5.44
2019-03-26T02:10:45.091Z,5.23
2019-03-26T02:13:13.857Z,5.08
2019-03-26T02:15:42.532Z,5.10
2019-03-26T02:18:11.259Z,5.16
2019-03-26T02:20:39.987Z,5.32
2019-03-26T02:23:08.702Z,5.48
2019-03-26T02:25:37.582Z,5.73
2019-03-26T02:28:06.287Z,5.78
2019-03-26T02:30:34.999Z,5.79
2019-03-26T02:33:03.869Z,5.71
2019-03-26T02:35:32.577Z,5.62
2019-03-26T02:38:01.295Z,5.72
2019-03-26T02:40:30.150Z,5.67
2019-03-26T02:42:58.862Z,5.60
2019-03-26T02:45:27.571Z,5.47
2019-03-26T02:47:56.431Z,5.29
2019-03-26T02:50:25.147Z,5.18
2019-03-26T02:52:57.011Z,5.15
2019-03-26T02:55:25.778Z,5.30
2019-03-26T02:57:54.491Z,5.16
2019-03-26T03:00:23.215Z,5.17
2019-03-26T03:02:52.181Z,5.28
2019-03-26T03:05:34.500Z,5.26
2019-03-26T03:07:51.334Z,5.32
2019-03-26T03:10:20.119Z,5.15
2019-03-26T03:12:48.829Z,5.06
2019-03-26T03:15:17.650Z,5.07
2019-03-26T03:17:46.513Z,5.02
2019-03-26T03:20:15.231Z,4.96
2019-03-26T03:22:43.970Z,4.99
2019-03-26T03:25:13.136Z,4.88
2019-03-26T03:27:41.858Z,4.71
2019-03-26T03:30:10.999Z,4.61
2019-03-26T03:32:39.864Z,4.63
2019-03-26T03:35:08.786Z,4.63
2019-03-26T03:37:37.499Z,4.70
2019-03-26T03:40:06.575Z,4.80
2019-03-26T03:42:35.401Z,4.92
2019-03-26T03:45:05.213Z,4.94
2019-03-26T03:47:33.970Z,5.04
2019-03-26T03:50:02.690Z,5.12
2019-03-26T03:52:34.326Z,4.97
2019-03-26T03:55:03.272Z,4.81
2019-03-26T03:57:34.522Z,4.72
2019-03-26T04:00:04.941Z,4.66
2019-03-26T04:02:33.823Z,4.60
2019-03-26T04:05:02.542Z,4.56
2019-03-26T04:07:31.259Z,4.43
2019-03-26T04:10:00.026Z,4.51
2019-03-26T04:12:28.741Z,4.42
2019-03-26T04:14:57.454Z,4.48
2019-03-26T04:17:26.490Z,4.45
2019-03-26T04:19:55.215Z,4.50
2019-03-26T04:22:23.932Z,4.62
2019-03-26T04:24:52.704Z,4.76
2019-03-26T04:27:21.422Z,4.80
2019-03-26T04:29:50.154Z,4.78
2019-03-26T04:32:19.034Z,4.79
2019-03-26T04:34:47.760Z,4.87
2019-03-26T04:37:16.475Z,4.89
2019-03-26T04:39:45.378Z,4.88
2019-03-26T04:42:14.101Z,4.93
2019-03-26T04:44:42.819Z,5.04
2019-03-26T04:47:11.665Z,5.11
2019-03-26T04:49:40.387Z,5.12
2019-03-26T04:52:09.107Z,5.13
2019-03-26T04:54:37.855Z,5.27
2019-03-26T04:57:06.573Z,5.47
2019-03-26T04:59:35.300Z,5.41
2019-03-26T05:02:04.089Z,5.40
2019-03-26T05:04:32.804Z,5.60
2019-03-26T05:07:01.522Z,5.68
2019-03-26T05:09:30.384Z,5.87
2019-03-26T05:11:59.107Z,6.05
2019-03-26T05:14:27.823Z,6.30
2019-03-26T05:16:56.693Z,6.51
2019-03-26T05:19:25.411Z,6.80
2019-03-26T05:21:54.136Z,7.08
2019-03-26T05:24:22.888Z,7.48
2019-03-26T05:26:51.704Z,7.64
2019-03-26T05:29:20.432Z,7.52
2019-03-26T05:31:49.187Z,7.53
2019-03-26T05:34:17.915Z,7.60
2019-03-26T05:36:51.585Z,7.70
2019-03-26T05:39:17.114Z,7.83
2019-03-26T05:41:45.839Z,8.14
2019-03-26T05:44:14.560Z,8.42
2019-03-26T05:46:43.324Z,8.69
2019-03-26T05:49:12.046Z,9.05
2019-03-26T05:51:40.764Z,9.52
2019-03-26T05:54:09.537Z,9.54
2019-03-26T05:56:38.275Z,9.55
2019-03-26T05:59:06.983Z,9.67
2019-03-26T06:01:35.860Z,9.98
2019-03-26T06:04:04.679Z,10.21
2019-03-26T06:06:33.399Z,10.26
2019-03-26T06:09:02.254Z,10.31
2019-03-26T06:11:30.990Z,10.33
2019-03-26T06:13:59.704Z,10.50
2019-03-26T06:16:38.190Z,10.72
2019-03-26T06:18:59.118Z,11.02
2019-03-26T06:21:27.842Z,11.25
2019-03-26T06:23:56.923Z,11.52
2019-03-26T06:26:25.656Z,11.68
2019-03-26T06:28:54.383Z,11.85
2019-03-26T06:31:23.252Z,12.02
2019-03-26T06:33:51.978Z,12.39
2019-03-26T06:36:20.713Z,12.78
2019-03-26T06:38:49.602Z,13.22
2019-03-26T06:41:18.320Z,13.60
2019-03-26T06:43:47.046Z,13.80
2019-03-26T06:46:16.254Z,13.77
2019-03-26T06:48:44.955Z,13.86
2019-03-26T06:51:13.680Z,13.53
2019-03-26T06:53:42.445Z,13.48
2019-03-26T06:56:11.174Z,13.62
2019-03-26T06:58:39.896Z,13.61
2019-03-26T07:01:08.736Z,13.79
2019-03-26T07:03:39.241Z,13.84
2019-03-26T07:06:07.974Z,14.19
2019-03-26T07:08:36.853Z,14.02
2019-03-26T07:11:05.682Z,13.90
2019-03-26T07:13:34.409Z,13.87
2019-03-26T07:16:04.445Z,14.03
2019-03-26T07:18:33.164Z,13.87
2019-03-26T07:21:01.886Z,13.98
2019-03-26T08:27:14.010Z,17.28
2019-03-26T08:29:42.731Z,17.82
2019-03-26T08:32:11.457Z,18.02
2019-03-26T08:34:40.352Z,18.11
2019-03-26T08:37:13.247Z,18.12
2019-03-26T08:39:41.969Z,18.28
2019-03-26T08:42:10.729Z,18.44
2019-03-26T08:44:39.458Z,18.71
2019-03-26T08:47:08.181Z,18.78
2019-03-26T08:49:36.965Z,18.82
2019-03-26T08:52:05.688Z,19.16
2019-03-26T08:54:34.407Z,19.37
2019-03-26T08:57:03.182Z,19.41
2019-03-26T08:59:31.896Z,19.20
2019-03-26T09:02:00.616Z,19.35
2019-03-26T09:04:29.384Z,19.15
2019-03-26T09:06:58.108Z,19.10
2019-03-26T09:09:26.887Z,19.30
2019-03-26T09:11:55.731Z,19.26
2019-03-26T09:14:24.452Z,19.41
2019-03-26T09:16:53.178Z,19.20
2019-03-26T09:19:21.961Z,19.05
2019-03-26T09:21:50.678Z,19.30
2019-03-26T09:24:19.402Z,19.27
2019-03-26T09:26:48.173Z,19.33
2019-03-26T09:29:16.904Z,19.30
2019-03-26T09:31:45.626Z,19.53
2019-03-26T09:34:14.548Z,19.52
2019-03-26T09:36:44.847Z,19.53
2019-03-26T09:39:13.583Z,19.38
2019-03-26T09:41:42.549Z,19.31
2019-03-26T09:44:11.264Z,19.10
2019-03-26T09:46:40.004Z,19.29
2019-03-26T09:49:08.861Z,19.44
2019-03-26T09:51:37.570Z,19.29
2019-03-26T09:54:06.327Z,19.32
2019-03-26T09:56:35.084Z,19.44
2019-03-26T09:59:03.805Z,19.86
2019-03-26T10:01:32.537Z,19.89
2019-03-26T10:04:01.370Z,19.70
2019-03-26T10:06:30.098Z,19.99
2019-03-26T10:08:58.815Z,19.87
2019-03-26T10:11:27.690Z,19.78
2019-03-26T10:13:57.852Z,19.94
2019-03-26T10:16:26.570Z,20.01
2019-03-26T10:18:55.817Z,20.37
2019-03-26T10:21:24.529Z,20.48
2019-03-26T10:23:53.254Z,20.67
2019-03-26T10:26:22.053Z,21.08
2019-03-26T10:28:50.773Z,21.43
2019-03-26T10:31:19.487Z,21.50
2019-03-26T10:33:48.273Z,20.94
2019-03-26T10:36:16.988Z,20.89
2019-03-26T10:38:45.708Z,21.12
2019-03-26T10:41:18.574Z,20.87
2019-03-26T10:43:46.400Z,21.10
2019-03-26T10:46:15.129Z,20.70
2019-03-26T10:48:44.165Z,20.51
2019-03-26T10:51:12.896Z,20.72
2019-03-26T10:53:41.620Z,20.61
2019-03-26T10:56:10.404Z,20.85
2019-03-26T10:58:39.123Z,20.78
2019-03-26T11:01:07.842Z,20.97
2019-03-26T11:03:36.613Z,21.05
2019-03-26T11:06:05.348Z,21.23
2019-03-26T11:08:34.070Z,21.52
2019-03-26T11:11:24.429Z,21.77
2019-03-26T11:13:53.191Z,22.28
2019-03-26T11:16:21.887Z,22.56
2019-03-26T11:18:51.028Z,22.43
2019-03-26T11:21:19.754Z,22.96
2019-03-26T11:23:48.459Z,22.44
2019-03-26T11:26:17.324Z,22.10
2019-03-26T11:28:46.034Z,21.97
2019-03-26T11:31:14.759Z,21.56
2019-03-26T11:33:45.179Z,21.76
2019-03-26T11:36:13.895Z,22.22
2019-03-26T11:38:42.612Z,22.59
2019-03-26T11:41:11.690Z,22.26
2019-03-26T11:43:40.412Z,21.94
2019-03-26T11:46:09.140Z,21.42
2019-03-26T11:48:37.999Z,21.48
2019-03-26T11:51:06.729Z,21.61
2019-03-26T11:53:35.455Z,21.87
2019-03-26T11:56:04.217Z,21.77
2019-03-26T11:58:32.931Z,21.71
2019-03-26T12:01:01.830Z,21.98
2019-03-26T12:03:30.659Z,22.04
2019-03-26T12:05:59.379Z,21.86
2019-03-26T12:08:28.096Z,22.05
2019-03-26T12:10:56.906Z,21.92
2019-03-26T12:13:25.635Z,21.68
2019-03-26T12:15:54.351Z,21.75
2019-03-26T12:18:23.298Z,21.79
2019-03-26T12:20:52.015Z,22.38
2019-03-26T12:23:20.732Z,22.17
2019-03-26T12:25:49.601Z,21.74
2019-03-26T12:28:18.326Z,21.72
2019-03-26T12:30:47.058Z,21.87
2019-03-26T12:33:16.142Z,21.85
2019-03-26T12:35:44.882Z,21.96
2019-03-26T12:38:18.098Z,21.71
2019-03-26T12:40:47.628Z,21.51
2019-03-26T12:43:16.441Z,21.86
2019-03-26T12:45:45.155Z,21.81
2019-03-26T12:48:13.959Z,21.42
2019-03-26T12:50:42.681Z,21.35
2019-03-26T12:53:12.812Z,21.32
2019-03-26T12:55:41.745Z,21.18
2019-03-26T12:58:10.457Z,21.07
2019-03-26T13:00:39.177Z,21.02
2019-03-26T13:03:09.953Z,21.00
2019-03-26T13:05:38.746Z,21.04
2019-03-26T13:08:07.471Z,20.76
2019-03-26T13:10:37.691Z,20.64
2019-03-26T13:13:06.562Z,20.65
2019-03-26T13:15:35.407Z,20.41
2019-03-26T13:18:04.167Z,20.43
2019-03-26T13:20:32.888Z,20.50
2019-03-26T13:23:01.603Z,20.40
2019-03-26T13:25:30.373Z,20.22
2019-03-26T13:27:59.096Z,19.93
2019-03-26T13:30:27.810Z,20.10
2019-03-26T13:32:56.683Z,20.01
2019-03-26T13:35:25.401Z,19.92
2019-03-26T13:37:54.122Z,19.62
2019-03-26T13:40:27.511Z,19.69
2019-03-26T13:42:53.586Z,19.51
2019-03-26T13:45:22.308Z,19.21
2019-03-26T13:47:51.185Z,19.06
2019-03-26T13:50:20.214Z,18.89
2019-03-26T13:52:48.925Z,18.79
2019-03-26T13:55:18.702Z,18.66
2019-03-26T13:57:47.424Z,18.38
2019-03-26T14:00:17.993Z,18.09
2019-03-26T14:02:47.207Z,17.89
2019-03-26T14:05:26.138Z,17.78
2019-03-26T14:07:54.901Z,17.68
2019-03-26T14:10:23.626Z,17.49
2019-03-26T14:12:52.450Z,17.38
2019-03-26T14:15:21.218Z,17.24
2019-03-26T14:17:49.967Z,17.04
2019-03-26T14:20:19.094Z,16.85
2019-03-26T14:22:47.898Z,16.77
2019-03-26T14:25:20.210Z,16.70
2019-03-26T14:27:48.926Z,16.52
2019-03-26T14:30:20.613Z,16.42
2019-03-26T14:32:50.271Z,16.36
2019-03-26T14:35:18.999Z,16.28
2019-03-26T14:37:51.520Z,16.22
2019-03-26T14:40:18.281Z,16.10
2019-03-26T14:42:46.984Z,15.98
2019-03-26T14:45:15.841Z,15.96
2019-03-26T14:47:44.560Z,15.98
2019-03-26T14:50:16.743Z,15.92
2019-03-26T14:52:45.715Z,15.89
2019-03-26T14:55:14.534Z,15.81
2019-03-26T14:57:43.256Z,15.78
2019-03-26T15:00:12.424Z,15.76
2019-03-26T15:02:41.140Z,15.77
2019-03-26T15:05:09.959Z,15.65
2019-03-26T15:07:38.827Z,15.70
2019-03-26T15:10:08.940Z,15.65
2019-03-26T15:12:40.412Z,15.64
2019-03-26T15:15:09.370Z,15.63
2019-03-26T15:17:38.081Z,15.69
2019-03-26T15:20:07.998Z,15.54
2019-03-26T15:22:37.012Z,15.37
2019-03-26T15:25:06.935Z,15.21
2019-03-26T15:27:35.649Z,15.25
2019-03-26T15:30:07.585Z,15.20
2019-03-26T15:32:36.302Z,15.14
2019-03-26T15:35:06.631Z,15.06
2019-03-26T15:37:35.514Z,14.91
2019-03-26T15:40:05.987Z,14.76
2019-03-26T15:42:34.710Z,14.74
2019-03-26T15:45:03.998Z,14.66
2019-03-26T15:47:32.713Z,14.66
2019-03-26T15:50:01.438Z,14.64
2019-03-26T15:52:30.227Z,14.56
2019-03-26T15:54:58.953Z,14.50
2019-03-26T15:57:27.665Z,14.48
2019-03-26T15:59:56.512Z,14.27
2019-03-26T16:02:25.235Z,14.30
2019-03-26T16:04:53.957Z,14.22
2019-03-26T16:07:22.993Z,14.11
2019-03-26T16:09:51.717Z,14.07
2019-03-26T16:12:20.430Z,13.93
2019-03-26T16:14:49.183Z,13.86
2019-03-26T16:17:17.934Z,13.76
2019-03-26T16:19:46.635Z,13.63
2019-03-26T16:22:27.774Z,13.57
2019-03-26T16:24:56.492Z,13.42
2019-03-26T16:27:25.229Z,13.38
2019-03-26T16:29:54.105Z,13.15
2019-03-26T16:32:22.820Z,13.10
2019-03-26T16:34:51.554Z,13.06
2019-03-26T16:37:20.314Z,12.83
2019-03-26T16:39:49.038Z,12.71
2019-03-26T16:42:20.075Z,12.45
2019-03-26T16:44:49.245Z,12.27
2019-03-26T16:47:17.975Z,12.11
2019-03-26T16:49:46.696Z,11.95
2019-03-26T16:52:15.553Z,11.86
2019-03-26T16:54:44.277Z,11.77
2019-03-26T16:57:13.106Z,11.66
2019-03-26T16:59:41.993Z,11.63
2019-03-26T17:02:10.722Z,11.60
2019-03-26T17:04:39.449Z,11.48
2019-03-26T17:07:09.228Z,11.35
2019-03-26T17:09:37.958Z,11.27
2019-03-26T17:12:06.682Z,11.14
2019-03-26T17:14:35.491Z,11.05
2019-03-26T17:17:04.213Z,11.00
2019-03-26T17:19:32.945Z,10.88
2019-03-26T17:22:01.786Z,10.87
2019-03-26T17:24:30.515Z,10.74
2019-03-26T17:26:59.243Z,10.74
2019-03-26T17:29:28.041Z,10.65
2019-03-26T17:31:56.765Z,10.66
2019-03-26T17:34:25.491Z,10.60
2019-03-26T17:36:54.619Z,10.52
2019-03-26T17:39:23.346Z,10.50
2019-03-26T17:41:52.183Z,10.43
2019-03-26T17:44:22.814Z,10.42
2019-03-26T17:46:51.506Z,10.42
2019-03-26T17:49:20.242Z,10.42
2019-03-26T17:51:49.411Z,10.34
2019-03-26T17:54:18.144Z,10.28
2019-03-26T17:56:47.581Z,10.28
2019-03-26T17:59:16.598Z,10.18
2019-03-26T18:01:45.633Z,10.18
2019-03-26T18:04:14.852Z,10.24
2019-03-26T18:06:43.630Z,10.16
2019-03-26T18:09:12.351Z,10.09
2019-03-26T18:11:41.075Z,10.10
2019-03-26T18:14:10.567Z,10.12
2019-03-26T18:16:39.297Z,10.08
2019-03-26T18:19:08.039Z,10.06
2019-03-26T18:21:50.522Z,10.00
2019-03-26T18:24:07.568Z,9.93
2019-03-26T18:26:36.353Z,9.96
2019-03-26T18:29:05.525Z,9.96
2019-03-26T18:31:34.248Z,9.95
2019-03-26T18:34:03.022Z,9.93
2019-03-26T18:36:31.850Z,9.87
2019-03-26T18:39:00.575Z,9.88
2019-03-26T18:41:29.300Z,9.79
2019-03-26T18:43:58.470Z,9.81
2019-03-26T18:46:27.195Z,9.73
2019-03-26T18:48:55.926Z,9.71
2019-03-26T18:51:24.810Z,9.67
2019-03-26T18:53:53.534Z,9.78
2019-03-26T18:56:22.258Z,9.81
2019-03-26T18:58:51.397Z,9.83
2019-03-26T19:01:20.119Z,9.71
2019-03-26T19:03:48.841Z,9.72
2019-03-26T19:06:17.661Z,9.77
2019-03-26T19:08:46.392Z,9.72
2019-03-26T19:11:15.116Z,9.74
2019-03-26T19:13:43.894Z,9.64
2019-03-26T19:16:12.602Z,9.47
2019-03-26T19:18:41.328Z,9.23
2019-03-26T19:21:10.389Z,9.15
2019-03-26T19:23:39.109Z,9.16
2019-03-26T19:26:07.830Z,9.01
2019-03-26T19:28:36.966Z,8.93
2019-03-26T19:31:05.682Z,9.00
2019-03-26T19:33:34.401Z,9.16
2019-03-26T19:36:04.963Z,9.02
2019-03-26T19:38:33.681Z,9.02
2019-03-26T19:41:02.406Z,9.08
2019-03-26T19:43:31.536Z,9.12
2019-03-26T19:46:00.264Z,9.18
2019-03-26T19:48:29.131Z,9.22
2019-03-26T19:50:57.923Z,9.43
2019-03-26T19:53:26.644Z,9.43
2019-03-26T19:55:55.365Z,9.46
2019-03-26T19:58:24.457Z,9.41
2019-03-26T20:00:53.186Z,9.46
2019-03-26T20:03:21.969Z,9.52
2019-03-26T20:05:50.805Z,9.55
2019-03-26T20:08:41.003Z,9.41
2019-03-26T20:11:11.099Z,9.34
2019-03-26T20:13:44.866Z,9.26
2019-03-26T20:16:13.652Z,9.37
2019-03-26T20:18:42.367Z,9.40
2019-03-26T20:21:11.662Z,9.34
2019-03-26T20:23:40.339Z,9.30
2019-03-26T20:26:09.105Z,9.35
2019-03-26T20:28:37.789Z,9.51
2019-03-26T20:31:06.577Z,9.38
2019-03-26T20:33:37.031Z,9.43
2019-03-26T20:36:05.717Z,9.37
2019-03-26T20:38:34.402Z,9.25
2019-03-26T20:41:03.247Z,9.26
2019-03-26T20:43:45.349Z,9.30
2019-03-26T20:46:14.229Z,9.21
2019-03-26T20:48:42.914Z,9.21
2019-03-26T20:51:11.601Z,9.35
2019-03-26T20:56:15.756Z,9.30
2019-03-26T20:58:44.529Z,9.25
2019-03-26T21:01:13.207Z,9.31
2019-03-26T21:04:21.905Z,9.20
2019-03-26T21:06:50.584Z,9.13
2019-03-26T21:09:20.815Z,9.14
2019-03-26T21:11:51.312Z,9.30
2019-03-26T21:14:19.992Z,9.23
2019-03-26T21:16:48.839Z,9.26
2019-03-26T21:19:18.992Z,9.23
2019-03-26T21:21:47.681Z,9.22
2019-03-26T21:24:16.448Z,9.29
2019-03-26T21:26:45.136Z,9.17
2019-03-26T21:29:13.825Z,9.18
2019-03-26T21:31:42.731Z,9.24
2019-03-26T21:34:11.425Z,9.22
2019-03-26T21:36:40.110Z,9.18
2019-03-26T21:39:08.957Z,9.14
2019-03-26T21:41:37.640Z,9.21
2019-03-26T21:44:06.318Z,9.22
2019-03-26T21:46:35.090Z,9.35
2019-03-26T21:49:03.775Z,9.34
2019-03-26T21:51:32.470Z,9.35
2019-03-26T21:54:01.304Z,9.35
2019-03-26T21:56:29.997Z,9.43
2019-03-26T21:58:58.695Z,9.40
2019-03-26T22:01:27.463Z,9.36
2019-03-26T22:03:56.146Z,9.39
2019-03-26T22:06:24.830Z,9.47
2019-03-26T22:08:53.966Z,9.48
2019-03-26T22:11:22.654Z,9.62
2019-03-26T22:13:51.331Z,9.71
2019-03-26T22:16:20.079Z,9.63
2019-03-26T22:18:48.755Z,9.60
2019-03-26T22:21:17.449Z,9.56
2019-03-26T22:23:46.194Z,9.52
2019-03-26T22:26:14.876Z,9.52
2019-03-26T22:28:43.563Z,9.53
2019-03-26T22:31:12.463Z,9.59
2019-03-26T22:33:41.203Z,9.58
2019-03-26T22:36:09.886Z,9.60
2019-03-26T22:38:38.622Z,9.62
2019-03-26T22:41:07.301Z,9.60
2019-03-26T22:43:35.974Z,9.49
2019-03-26T22:46:05.072Z,9.60
2019-03-26T22:48:33.759Z,9.63
2019-03-26T22:51:02.440Z,9.82
2019-03-26T22:53:31.165Z,9.82
2019-03-26T22:55:59.853Z,9.69
2019-03-26T22:58:28.528Z,9.50
2019-03-26T23:00:57.706Z,9.43
2019-03-26T23:03:26.382Z,9.36
2019-03-26T23:05:55.063Z,9.41
2019-03-26T23:08:24.165Z,9.31
2019-03-26T23:10:52.847Z,9.27
2019-03-26T23:13:21.526Z,9.24
2019-03-26T23:15:50.257Z,9.37
2019-03-26T23:18:18.946Z,9.53
2019-03-26T23:20:47.634Z,9.56
2019-03-26T23:23:16.552Z,9.48
2019-03-26T23:25:45.236Z,9.45
2019-03-26T23:28:13.919Z,9.41
2019-03-26T23:30:42.751Z,9.44
2019-03-26T23:33:11.437Z,9.42
2019-03-26T23:35:40.176Z,9.40
2019-03-26T23:38:08.917Z,9.39
2019-03-26T23:40:37.586Z,9.41
2019-03-26T23:43:06.275Z,9.41
2019-03-26T23:45:35.103Z,9.46
2019-03-26T23:48:03.807Z,9.43
2019-03-26T23:50:32.473Z,9.44
2019-03-26T23:53:01.191Z,9.47
2019-03-26T23:55:29.870Z,9.56
2019-03-26T23:57:58.551Z,9.55
